createdAt,value
2018-04-09T00:01:03.652Z,9.10
2018-04-09T00:03:29.759Z,8.90
2018-04-09T00:05:55.869Z,8.70
2018-04-09T00:08:21.971Z,9.70
2018-04-09T00:10:48.150Z,9.10
2018-04-09T00:13:14.252Z,8.13
2018-04-09T00:15:40.374Z,8.77
2018-04-09T00:18:06.451Z,9.13
2018-04-09T00:20:33.294Z,10.83
2018-04-09T00:22:59.370Z,11.00
2018-04-09T00:25:25.500Z,10.13
2018-04-09T00:27:51.639Z,8.43
2018-04-09T00:30:17.771Z,10.23
2018-04-09T00:32:43.927Z,10.50
2018-04-09T00:35:10.069Z,8.70
2018-04-09T00:37:36.210Z,9.80
2018-04-09T00:40:02.345Z,9.10
2018-04-09T00:42:28.489Z,9.70
2018-04-09T00:44:54.631Z,8.90
2018-04-09T00:47:20.698Z,8.73
2018-04-09T00:49:46.817Z,10.03
2018-04-09T00:52:12.895Z,9.20
2018-04-09T00:54:39.008Z,10.50
2018-04-09T00:57:05.126Z,10.10
2018-04-09T00:59:31.230Z,10.00
2018-04-09T01:01:57.346Z,9.83
2018-04-09T01:04:23.454Z,9.37
2018-04-09T01:06:49.658Z,9.00
2018-04-09T01:09:15.792Z,8.50
2018-04-09T01:11:41.910Z,10.43
2018-04-09T01:14:07.990Z,9.60
2018-04-09T01:16:35.029Z,9.40
2018-04-09T01:19:02.257Z,9.50
2018-04-09T01:21:28.427Z,8.90
2018-04-09T01:23:54.546Z,8.73
2018-04-09T01:26:21.411Z,9.73
2018-04-09T01:28:47.641Z,8.40
2018-04-09T01:31:13.801Z,10.53
2018-04-09T01:33:39.899Z,8.60
2018-04-09T01:36:06.026Z,9.40
2018-04-09T01:38:32.242Z,9.27
2018-04-09T01:40:58.347Z,8.80
2018-04-09T01:43:25.190Z,8.90
2018-04-09T01:45:51.308Z,8.23
2018-04-09T01:48:17.458Z,10.00
2018-04-09T01:50:43.582Z,8.63
2018-04-09T01:53:09.683Z,8.93
2018-04-09T01:55:35.786Z,8.60
2018-04-09T01:58:02.679Z,9.30
2018-04-09T02:00:28.805Z,8.17
2018-04-09T02:02:54.924Z,8.53
2018-04-09T02:05:21.785Z,8.53
2018-04-09T02:07:48.622Z,9.27
2018-04-09T02:10:14.737Z,8.90
2018-04-09T02:12:40.881Z,9.03
2018-04-09T02:15:07.003Z,9.83
2018-04-09T02:17:33.130Z,8.80
2018-04-09T02:19:59.203Z,9.70
2018-04-09T02:22:25.302Z,9.23
2018-04-09T02:24:51.413Z,9.40
2018-04-09T02:27:18.235Z,9.90
2018-04-09T02:29:44.356Z,10.23
2018-04-09T02:32:10.455Z,9.53
2018-04-09T02:34:37.673Z,8.90
2018-04-09T02:37:03.785Z,9.17
2018-04-09T02:39:29.908Z,8.10
2018-04-09T02:41:56.074Z,8.00
2018-04-09T02:44:22.183Z,8.83
2018-04-09T02:46:48.306Z,8.90
2018-04-09T02:49:15.138Z,9.13
2018-04-09T02:51:41.251Z,8.70
2018-04-09T02:54:07.433Z,8.80
2018-04-09T02:56:33.539Z,7.13
2018-04-09T02:58:59.652Z,8.90
2018-04-09T03:01:25.780Z,7.80
2018-04-09T03:03:51.919Z,8.03
2018-04-09T03:06:18.076Z,7.27
2018-04-09T03:08:44.192Z,8.17
2018-04-09T03:11:10.306Z,8.40
2018-04-09T03:13:36.410Z,8.73
2018-04-09T03:16:02.619Z,8.63
2018-04-09T03:18:28.749Z,7.80
2018-04-09T03:20:54.818Z,7.40
2018-04-09T03:23:20.962Z,7.20
2018-04-09T03:25:47.055Z,7.67
2018-04-09T03:28:14.060Z,7.80
2018-04-09T03:30:41.075Z,8.70
2018-04-09T03:33:07.175Z,7.07
2018-04-09T03:35:33.347Z,7.37
2018-04-09T03:37:59.427Z,8.13
2018-04-09T03:40:25.566Z,8.47
2018-04-09T03:42:51.663Z,8.40
2018-04-09T03:45:17.783Z,7.83
2018-04-09T03:47:44.615Z,7.73
2018-04-09T03:50:10.697Z,8.63
2018-04-09T03:52:36.843Z,8.00
2018-04-09T03:55:02.955Z,8.83
2018-04-09T03:57:29.799Z,7.73
2018-04-09T03:59:56.691Z,7.83
2018-04-09T04:02:22.782Z,7.80
2018-04-09T04:04:48.924Z,7.90
2018-04-09T04:07:15.784Z,7.73
2018-04-09T04:09:41.922Z,7.43
2018-04-09T04:12:08.028Z,6.93
2018-04-09T04:14:35.265Z,8.10
2018-04-09T04:17:13.570Z,6.70
2018-04-09T04:19:51.875Z,7.07
2018-04-09T04:22:18.004Z,8.00
2018-04-09T04:24:44.109Z,6.83
2018-04-09T04:27:10.254Z,8.00
2018-04-09T04:29:36.366Z,6.80
2018-04-09T04:32:02.538Z,7.70
2018-04-09T04:34:28.659Z,7.40
2018-04-09T04:36:54.768Z,6.60
2018-04-09T04:39:20.907Z,10.20
2018-04-09T04:41:47.015Z,6.73
2018-04-09T04:44:13.824Z,7.20
2018-04-09T04:46:39.939Z,6.73
2018-04-09T04:49:06.046Z,8.10
2018-04-09T04:51:32.166Z,7.07
2018-04-09T04:53:58.256Z,6.93
2018-04-09T04:56:24.355Z,7.50
2018-04-09T04:58:50.472Z,6.67
2018-04-09T05:01:16.571Z,7.67
2018-04-09T05:03:42.681Z,6.80
2018-04-09T05:06:08.774Z,8.13
2018-04-09T05:08:34.924Z,7.17
2018-04-09T05:11:01.051Z,6.43
2018-04-09T05:13:27.158Z,7.60
2018-04-09T05:15:53.351Z,7.27
2018-04-09T05:18:19.474Z,7.30
2018-04-09T05:20:45.563Z,8.17
2018-04-09T05:23:12.394Z,8.20
2018-04-09T05:25:38.500Z,7.50
2018-04-09T05:28:04.583Z,7.90
2018-04-09T05:30:30.742Z,7.87
2018-04-09T05:32:57.662Z,7.20
2018-04-09T05:35:23.871Z,7.07
2018-04-09T05:37:50.049Z,7.43
2018-04-09T05:40:16.190Z,7.30
2018-04-09T05:42:42.318Z,7.00
2018-04-09T05:45:08.434Z,7.27
2018-04-09T05:47:34.554Z,9.30
2018-04-09T05:50:00.698Z,8.37
2018-04-09T05:52:26.811Z,8.70
2018-04-09T05:54:52.934Z,7.70
2018-04-09T05:57:19.799Z,8.73
2018-04-09T05:59:46.658Z,7.43
2018-04-09T06:02:13.520Z,8.80
2018-04-09T06:04:39.731Z,7.93
2018-04-09T06:07:05.868Z,8.03
2018-04-09T06:09:31.998Z,8.60
2018-04-09T06:11:58.113Z,8.30
2018-04-09T06:14:24.225Z,8.30
2018-04-09T06:16:50.323Z,6.43
2018-04-09T06:19:16.487Z,7.87
2018-04-09T06:21:42.590Z,8.07
2018-04-09T06:24:08.772Z,7.50
2018-04-09T06:26:34.981Z,7.73
2018-04-09T06:29:01.123Z,8.70
2018-04-09T06:31:27.534Z,7.73
2018-04-09T06:33:53.764Z,8.97
2018-04-09T06:36:19.884Z,8.30
2018-04-09T06:38:46.122Z,8.50
2018-04-09T06:41:13.273Z,8.17
2018-04-09T06:43:39.423Z,8.90
2018-04-09T06:46:05.866Z,7.80
2018-04-09T06:48:32.332Z,8.63
2018-04-09T06:50:58.502Z,8.70
2018-04-09T06:53:24.942Z,8.57
2018-04-09T06:55:54.765Z,8.90
2018-04-09T06:58:23.265Z,9.37
2018-04-09T07:00:49.795Z,10.60
2018-04-09T07:03:15.935Z,10.27
2018-04-09T07:05:42.517Z,9.40
2018-04-09T07:08:09.542Z,8.80
2018-04-09T07:10:38.386Z,8.97
2018-04-09T07:13:06.654Z,9.77
2018-04-09T07:15:33.675Z,9.93
2018-04-09T07:18:01.376Z,10.20
2018-04-09T07:20:27.568Z,10.97
2018-04-09T07:22:54.830Z,11.10
2018-04-09T07:25:21.672Z,10.10
2018-04-09T07:27:47.897Z,9.60
2018-04-09T07:30:14.033Z,11.27
2018-04-09T07:32:40.203Z,12.97
2018-04-09T07:35:07.067Z,11.90
2018-04-09T07:37:33.342Z,11.63
2018-04-09T07:39:59.481Z,12.20
2018-04-09T07:42:25.674Z,13.07
2018-04-09T07:44:51.814Z,13.83
2018-04-09T07:47:17.922Z,14.97
2018-04-09T07:49:44.088Z,16.07
2018-04-09T07:52:10.868Z,15.00
2018-04-09T07:57:09.759Z,25.57
2018-04-09T07:59:37.175Z,23.00
2018-04-09T08:02:07.066Z,23.07
2018-04-09T08:04:33.754Z,25.60
2018-04-09T08:06:59.887Z,24.33
2018-04-09T08:09:27.323Z,24.13
2018-04-09T08:11:55.472Z,23.60
2018-04-09T08:14:21.747Z,22.93
2018-04-09T08:16:48.049Z,24.33
2018-04-09T08:19:14.175Z,23.03
2018-04-09T08:21:40.294Z,24.40
2018-04-09T08:24:07.490Z,21.40
2018-04-09T08:26:33.651Z,22.57
2018-04-09T08:29:00.280Z,22.73
2018-04-09T08:31:26.533Z,23.23
2018-04-09T08:33:52.684Z,22.10
2018-04-09T08:36:18.822Z,21.77
2018-04-09T08:38:44.958Z,21.33
2018-04-09T08:41:11.060Z,23.47
2018-04-09T08:43:37.262Z,22.73
2018-04-09T08:46:04.223Z,23.20
2018-04-09T08:48:30.307Z,23.13
2018-04-09T08:50:56.445Z,22.77
2018-04-09T08:53:22.616Z,24.17
2018-04-09T08:55:48.765Z,24.73
2018-04-09T08:58:14.896Z,25.30
2018-04-09T09:00:41.122Z,21.67
2018-04-09T09:03:07.263Z,22.93
2018-04-09T09:05:36.783Z,23.23
2018-04-09T09:08:02.923Z,23.10
2018-04-09T09:10:29.067Z,23.67
2018-04-09T09:12:55.731Z,24.10
2018-04-09T09:18:05.516Z,23.20
2018-04-09T09:20:33.555Z,22.60
2018-04-09T09:37:55.181Z,23.23
2018-04-09T09:40:22.104Z,22.87
2018-04-09T09:42:49.459Z,23.20
2018-04-09T09:45:16.848Z,23.50
2018-04-09T09:47:45.215Z,23.70
2018-04-09T09:50:14.248Z,23.40
2018-04-09T09:52:42.315Z,22.80
2018-04-09T09:55:10.067Z,23.77
2018-04-09T09:57:37.392Z,23.37
2018-04-09T10:00:04.569Z,26.27
2018-04-09T10:02:42.543Z,24.03
2018-04-09T10:05:08.799Z,23.97
2018-04-09T10:07:34.916Z,25.33
2018-04-09T10:10:01.047Z,24.30
2018-04-09T10:12:27.906Z,23.97
2018-04-09T10:14:54.033Z,26.53
2018-04-09T10:17:20.658Z,23.27
2018-04-09T10:19:46.763Z,24.70
2018-04-09T10:22:12.949Z,25.30
2018-04-09T10:24:39.094Z,25.53
2018-04-09T10:27:05.231Z,24.20
2018-04-09T10:29:31.382Z,27.67
2018-04-09T10:31:58.704Z,29.10
2018-04-09T10:34:24.952Z,28.97
2018-04-09T10:36:51.111Z,29.40
2018-04-09T10:39:17.256Z,28.10
2018-04-09T10:41:43.471Z,27.80
2018-04-09T10:44:09.689Z,29.90
2018-04-09T10:46:35.787Z,29.13
2018-04-09T10:49:01.934Z,27.60
2018-04-09T10:51:28.136Z,30.20
2018-04-09T10:53:55.048Z,28.90
2018-04-09T10:56:21.138Z,28.90
2018-04-09T10:58:47.283Z,29.17
2018-04-09T11:01:13.393Z,28.80
2018-04-09T11:03:39.521Z,25.97
2018-04-09T11:06:05.661Z,27.80
2018-04-09T11:08:31.786Z,26.00
2018-04-09T11:10:57.930Z,23.60
2018-04-09T11:13:24.048Z,23.07
2018-04-09T11:15:50.193Z,22.23
2018-04-09T11:18:17.142Z,24.60
2018-04-09T11:20:43.315Z,24.80
2018-04-09T11:23:09.581Z,28.50
2018-04-09T11:25:35.688Z,25.83
2018-04-09T11:28:01.832Z,25.07
2018-04-09T11:30:27.982Z,23.90
2018-04-09T11:32:54.100Z,26.30
2018-04-09T11:35:20.310Z,26.20
2018-04-09T11:37:47.305Z,26.00
2018-04-09T11:40:13.401Z,27.93
2018-04-09T11:42:39.949Z,26.23
2018-04-09T11:45:06.057Z,25.60
2018-04-09T11:47:32.161Z,24.40
2018-04-09T11:49:58.286Z,23.10
2018-04-09T11:52:25.129Z,22.80
2018-04-09T11:54:51.215Z,22.37
2018-04-09T11:57:17.333Z,21.07
2018-04-09T11:59:43.638Z,24.53
2018-04-09T12:02:09.908Z,25.07
2018-04-09T12:04:36.028Z,23.20
2018-04-09T12:07:02.897Z,23.47
2018-04-09T12:09:29.046Z,22.70
2018-04-09T12:11:55.178Z,26.90
2018-04-09T12:14:21.290Z,25.07
2018-04-09T12:16:47.405Z,23.27
2018-04-09T12:19:13.588Z,24.47
2018-04-09T12:21:40.483Z,23.87
2018-04-09T12:24:06.607Z,24.10
2018-04-09T12:26:32.848Z,24.13
2018-04-09T12:28:59.061Z,22.63
2018-04-09T12:34:17.735Z,23.37
2018-04-09T12:36:43.833Z,22.63
2018-04-09T12:39:09.945Z,22.37
2018-04-09T12:41:36.053Z,23.77
2018-04-09T12:44:02.208Z,23.80
2018-04-09T12:46:28.316Z,20.50
2018-04-09T12:48:54.507Z,19.20
2018-04-09T12:51:20.631Z,19.80
2018-04-09T12:53:46.816Z,20.70
2018-04-09T12:56:12.931Z,19.17
2018-04-09T12:58:39.142Z,21.70
2018-04-09T13:03:32.334Z,20.83
2018-04-09T13:05:58.623Z,20.40
2018-04-09T13:08:26.261Z,20.90
2018-04-09T13:10:52.502Z,20.90
2018-04-09T13:13:18.791Z,22.23
2018-04-09T13:15:45.363Z,21.50
2018-04-09T13:18:11.825Z,23.27
2018-04-09T18:42:26.204Z,14.90
2018-04-09T18:44:52.353Z,14.50
2018-04-09T18:47:18.478Z,12.53
2018-04-09T18:49:44.615Z,13.40
2018-04-09T18:52:10.779Z,12.70
2018-04-09T18:54:36.895Z,13.83
2018-04-09T18:57:03.024Z,14.50
2018-04-09T18:59:29.164Z,12.77
2018-04-09T19:04:30.110Z,14.70
2018-04-09T19:06:56.967Z,14.47
2018-04-09T19:09:23.070Z,14.53
2018-04-09T19:11:49.261Z,14.73
2018-04-09T19:14:15.420Z,13.80
2018-04-09T19:16:41.878Z,16.13
2018-04-09T19:19:08.029Z,14.00
2018-04-09T19:21:34.197Z,15.43
2018-04-09T19:24:01.388Z,15.60
2018-04-09T19:26:41.084Z,16.83
2018-04-09T19:29:07.477Z,16.00
2018-04-09T19:31:34.403Z,15.97
2018-04-09T19:34:00.618Z,13.73
2018-04-09T19:36:32.870Z,14.00
2018-04-09T19:39:05.034Z,15.70
2018-04-09T19:41:50.417Z,12.80
2018-04-09T19:44:16.549Z,15.80
2018-04-09T19:46:42.735Z,14.27
2018-04-09T19:49:09.418Z,12.40
2018-04-09T19:51:35.617Z,12.30
2018-04-09T19:54:02.356Z,12.27
2018-04-09T19:56:28.586Z,12.07
2018-04-09T19:58:54.829Z,11.03
2018-04-09T20:01:22.007Z,11.57
2018-04-09T20:03:48.180Z,11.00
2018-04-09T20:06:14.579Z,10.53
2018-04-09T20:08:41.443Z,12.20
2018-04-09T20:11:07.643Z,11.60
2018-04-09T20:13:34.746Z,10.10
2018-04-09T20:16:00.925Z,10.93
2018-04-09T20:18:27.033Z,11.43
2018-04-09T20:20:53.170Z,10.90
2018-04-09T20:23:20.013Z,10.13
2018-04-09T20:25:47.341Z,10.20
2018-04-09T20:28:13.494Z,10.30
2018-04-09T20:30:39.636Z,10.60
2018-04-09T20:33:05.754Z,10.27
2018-04-09T20:35:31.905Z,11.50
2018-04-09T20:37:58.049Z,11.03
2018-04-09T20:40:24.325Z,9.07
2018-04-09T20:42:50.549Z,10.20
2018-04-09T20:45:16.671Z,10.23
2018-04-09T20:47:42.872Z,9.17
2018-04-09T20:50:08.982Z,9.13
2018-04-09T20:52:36.945Z,9.03
2018-04-09T20:55:03.079Z,8.90
2018-04-09T20:57:29.229Z,8.47
2018-04-09T20:59:55.341Z,8.83
2018-04-09T21:02:21.434Z,8.07
2018-04-09T21:04:47.578Z,8.97
2018-04-09T21:07:13.773Z,8.87
2018-04-09T21:09:39.908Z,8.93
2018-04-09T21:12:06.025Z,7.77
2018-04-09T21:14:32.182Z,9.07
2018-04-09T21:16:58.279Z,9.93
2018-04-09T21:19:24.557Z,8.00
2018-04-09T21:21:50.635Z,9.30
2018-04-09T21:24:17.902Z,8.57
2018-04-09T21:26:44.087Z,7.80
2018-04-09T21:29:11.260Z,7.43
2018-04-09T21:31:38.356Z,9.10
2018-04-09T21:34:06.218Z,8.70
2018-04-09T21:36:32.482Z,9.20
2018-04-09T21:38:59.396Z,7.87
2018-04-09T21:41:25.527Z,9.47
2018-04-09T21:43:51.642Z,9.07
2018-04-09T21:46:17.797Z,8.97
2018-04-09T21:48:43.950Z,9.43
2018-04-09T21:51:10.053Z,10.50
2018-04-09T21:53:37.294Z,9.10
2018-04-09T21:56:04.148Z,8.47
2018-04-09T21:58:30.279Z,9.40
2018-04-09T22:00:56.382Z,10.20
2018-04-09T22:03:22.527Z,9.80
2018-04-09T22:05:48.738Z,10.53
2018-04-09T22:08:14.872Z,9.60
2018-04-09T22:10:40.999Z,10.03
2018-04-09T22:13:07.114Z,10.17
2018-04-09T22:15:33.245Z,10.90
2018-04-09T22:17:59.346Z,11.50
2018-04-09T22:20:26.207Z,10.10
2018-04-09T22:22:52.340Z,10.27
2018-04-09T22:25:18.470Z,10.93
2018-04-09T22:27:44.621Z,11.07
2018-04-09T22:30:10.736Z,13.10
2018-04-09T22:32:36.893Z,13.10
2018-04-09T22:35:03.125Z,13.50
2018-04-09T22:37:29.263Z,13.33
2018-04-09T22:39:55.442Z,12.77
2018-04-09T22:42:21.553Z,13.07
2018-04-09T22:44:47.699Z,15.63
2018-04-09T22:47:13.797Z,17.57
2018-04-09T22:49:39.894Z,21.00
2018-04-09T22:52:06.017Z,22.40
2018-04-09T22:54:32.127Z,23.60
2018-04-09T22:56:58.232Z,22.43
2018-04-09T22:59:24.391Z,23.23
2018-04-09T23:01:50.502Z,26.27
2018-04-09T23:04:16.618Z,23.00
2018-04-09T23:06:42.728Z,24.87
2018-04-09T23:09:08.847Z,27.53
2018-04-09T23:11:34.964Z,25.50
2018-04-09T23:14:01.068Z,29.03
2018-04-09T23:16:31.635Z,29.60
2018-04-09T23:18:57.772Z,30.00
2018-04-09T23:21:23.951Z,28.10
2018-04-09T23:23:50.069Z,28.03
2018-04-09T23:26:16.992Z,28.43
2018-04-09T23:28:43.080Z,30.30
2018-04-09T23:31:09.188Z,30.67
2018-04-09T23:33:35.297Z,30.40
2018-04-09T23:36:01.393Z,33.43
2018-04-09T23:38:27.521Z,33.03
2018-04-09T23:40:54.373Z,33.33
2018-04-09T23:43:21.269Z,34.97
2018-04-09T23:45:47.376Z,34.17
2018-04-09T23:48:13.479Z,35.40
2018-04-09T23:50:39.602Z,33.37
2018-04-09T23:53:05.684Z,36.10
2018-04-09T23:55:32.530Z,38.13
2018-04-09T23:57:58.649Z,34.17
